Auburn Township, Ohio
Current Conditions -  °F | °C
As of 7:21 PM on Tuesday 25 Nov 2014 (Local Time) from KPOV Reporting Station
Overcast Overcast  
Wind Chill: 28°   Ceiling: 2300
Heat Index: 34°   Visibility: 10mi
Dew Point: 26°   Wind: 7mph
Humidity: 72%   Direction: 290°WNW
Pressure: 30.15"   Gusts: NA
Location:  41.2966°N, 81.2269°W
Report Text: KPOV 260021Z AUTO 29006KT 10SM OVC023 01/M03 A3015 RMK AO2 T00101035
Loading
Personal Weather Stations






























Interactive Weather Map New forecast layout! Learn more

10-Day Weather Forecast

Advertisements
Track Severe Weather on mobile